createdAt,value
2018-05-03T21:03:40.209Z,12.20
2018-05-03T21:06:07.820Z,11.90
2018-05-03T21:08:34.127Z,11.80
2018-05-03T21:11:00.491Z,11.90
2018-05-03T21:13:26.869Z,12.20
2018-05-03T21:15:53.210Z,12.30
2018-05-03T21:18:19.563Z,12.30
2018-05-03T21:20:45.954Z,12.40
2018-05-03T21:23:12.317Z,12.00
2018-05-03T21:25:38.621Z,11.50
2018-05-03T21:28:04.988Z,10.90
2018-05-03T21:30:31.324Z,10.50
2018-05-03T21:32:57.680Z,11.00
2018-05-03T21:35:23.985Z,11.10
2018-05-03T21:37:50.363Z,11.10
2018-05-03T21:40:17.452Z,10.20
2018-05-03T21:42:43.763Z,10.20
2018-05-03T21:45:10.074Z,10.70
2018-05-03T21:47:37.171Z,11.10
2018-05-03T21:50:03.520Z,11.10
2018-05-03T21:52:29.941Z,10.90
2018-05-03T21:54:57.002Z,10.80
2018-05-03T21:57:23.411Z,10.80
2018-05-03T21:59:50.503Z,11.20
2018-05-03T22:02:17.613Z,10.70
2018-05-03T22:04:43.955Z,10.60
2018-05-03T22:07:10.264Z,10.00
2018-05-03T22:09:36.625Z,9.50
2018-05-03T22:12:02.931Z,9.50
2018-05-03T22:14:29.288Z,9.70
2018-05-03T22:16:55.591Z,9.80
2018-05-03T22:19:22.129Z,9.20
2018-05-03T22:21:48.536Z,9.50
2018-05-03T22:24:14.916Z,9.80
2018-05-03T22:26:41.307Z,9.50
2018-05-03T22:29:07.697Z,9.60
2018-05-03T22:31:34.738Z,10.00
2018-05-03T22:34:01.947Z,9.50
2018-05-03T22:36:28.374Z,9.50
2018-05-03T22:38:54.735Z,9.80
2018-05-03T22:41:21.112Z,9.50
2018-05-03T22:43:47.408Z,9.40
2018-05-03T22:46:14.538Z,8.80
2018-05-03T22:48:40.846Z,8.70
2018-05-03T22:51:08.102Z,8.70
2018-05-03T22:53:34.440Z,9.30
2018-05-03T22:56:04.901Z,9.20
2018-05-03T22:58:31.993Z,8.70
2018-05-03T23:00:58.308Z,8.70
2018-05-03T23:03:24.670Z,8.70
2018-05-03T23:05:51.003Z,9.10
2018-05-03T23:08:17.365Z,8.90
2018-05-03T23:10:44.442Z,9.10
2018-05-03T23:13:10.751Z,9.10
2018-05-03T23:15:37.841Z,9.10
2018-05-03T23:18:04.145Z,9.00
2018-05-03T23:20:30.486Z,9.00
2018-05-03T23:22:56.841Z,9.10
2018-05-03T23:25:23.143Z,9.10
2018-05-03T23:27:49.501Z,9.50
2018-05-03T23:30:15.937Z,9.30
2018-05-03T23:32:43.067Z,9.00
2018-05-03T23:35:09.374Z,9.10
2018-05-03T23:37:35.733Z,9.30
2018-05-03T23:40:02.057Z,9.40
2018-05-03T23:42:28.447Z,9.40
2018-05-03T23:44:55.525Z,8.50
2018-05-03T23:47:21.870Z,8.40
2018-05-03T23:49:48.218Z,8.10
2018-05-03T23:52:14.525Z,7.90
2018-05-03T23:54:40.882Z,7.60
2018-05-03T23:57:07.185Z,7.70
2018-05-03T23:59:33.536Z,7.50
